sensor_id;sensor_type;location;lat;lon;timestamp;P1;durP1;ratioP1;P2;durP2;ratioP2
47483;SDS011;54076;50.322;18.650;2024-01-27T00:04:20;6.60;;;1.80;;
47483;SDS011;54076;50.322;18.650;2024-01-27T00:09:21;7.50;;;1.50;;
47483;SDS011;54076;50.322;18.650;2024-01-27T00:14:22;7.10;;;1.70;;
47483;SDS011;54076;50.322;18.650;2024-01-27T00:19:23;6.60;;;2.00;;
47483;SDS011;54076;50.322;18.650;2024-01-27T00:24:24;5.30;;;1.40;;
47483;SDS011;54076;50.322;18.650;2024-01-27T00:29:25;5.50;;;1.50;;
47483;SDS011;54076;50.322;18.650;2024-01-27T00:34:26;6.10;;;1.40;;
47483;SDS011;54076;50.322;18.650;2024-01-27T00:39:27;5.00;;;1.60;;
47483;SDS011;54076;50.322;18.650;2024-01-27T00:44:28;8.30;;;1.60;;
47483;SDS011;54076;50.322;18.650;2024-01-27T00:49:30;5.40;;;1.70;;
47483;SDS011;54076;50.322;18.650;2024-01-27T00:54:31;6.50;;;2.00;;
47483;SDS011;54076;50.322;18.650;2024-01-27T00:59:32;6.40;;;2.10;;
47483;SDS011;54076;50.322;18.650;2024-01-27T01:04:33;8.80;;;2.20;;
47483;SDS011;54076;50.322;18.650;2024-01-27T01:09:34;8.40;;;2.00;;
47483;SDS011;54076;50.322;18.650;2024-01-27T01:14:35;5.70;;;1.80;;
47483;SDS011;54076;50.322;18.650;2024-01-27T01:19:37;6.60;;;1.80;;
47483;SDS011;54076;50.322;18.650;2024-01-27T01:24:38;6.20;;;1.90;;
47483;SDS011;54076;50.322;18.650;2024-01-27T01:29:39;9.20;;;2.10;;
47483;SDS011;54076;50.322;18.650;2024-01-27T01:34:40;5.70;;;1.90;;
47483;SDS011;54076;50.322;18.650;2024-01-27T01:39:41;7.30;;;1.90;;
47483;SDS011;54076;50.322;18.650;2024-01-27T01:44:42;6.10;;;1.90;;
47483;SDS011;54076;50.322;18.650;2024-01-27T01:49:43;6.10;;;2.00;;
47483;SDS011;54076;50.322;18.650;2024-01-27T01:54:48;5.90;;;2.20;;
47483;SDS011;54076;50.322;18.650;2024-01-27T01:59:49;9.60;;;2.10;;
47483;SDS011;54076;50.322;18.650;2024-01-27T02:04:50;7.70;;;2.10;;
47483;SDS011;54076;50.322;18.650;2024-01-27T02:09:51;4.80;;;1.40;;
47483;SDS011;54076;50.322;18.650;2024-01-27T02:14:52;6.60;;;1.70;;
47483;SDS011;54076;50.322;18.650;2024-01-27T02:19:53;6.80;;;1.60;;
47483;SDS011;54076;50.322;18.650;2024-01-27T02:24:54;5.80;;;1.90;;
47483;SDS011;54076;50.322;18.650;2024-01-27T02:29:55;5.00;;;2.10;;
47483;SDS011;54076;50.322;18.650;2024-01-27T02:34:56;5.80;;;1.60;;
47483;SDS011;54076;50.322;18.650;2024-01-27T02:39:57;6.90;;;1.70;;
47483;SDS011;54076;50.322;18.650;2024-01-27T02:44:58;6.00;;;1.80;;
47483;SDS011;54076;50.322;18.650;2024-01-27T02:49:59;10.80;;;1.80;;
47483;SDS011;54076;50.322;18.650;2024-01-27T02:55:01;5.20;;;1.80;;
47483;SDS011;54076;50.322;18.650;2024-01-27T03:00:03;7.70;;;2.10;;
47483;SDS011;54076;50.322;18.650;2024-01-27T03:05:05;5.90;;;1.60;;
47483;SDS011;54076;50.322;18.650;2024-01-27T03:10:08;6.60;;;1.70;;
47483;SDS011;54076;50.322;18.650;2024-01-27T03:15:09;5.40;;;1.80;;
47483;SDS011;54076;50.322;18.650;2024-01-27T03:20:10;9.40;;;2.20;;
47483;SDS011;54076;50.322;18.650;2024-01-27T03:25:11;8.20;;;1.90;;
47483;SDS011;54076;50.322;18.650;2024-01-27T03:30:13;8.20;;;1.90;;
47483;SDS011;54076;50.322;18.650;2024-01-27T03:35:14;9.00;;;1.90;;
47483;SDS011;54076;50.322;18.650;2024-01-27T03:40:15;7.50;;;1.70;;
47483;SDS011;54076;50.322;18.650;2024-01-27T03:45:16;8.70;;;2.10;;
47483;SDS011;54076;50.322;18.650;2024-01-27T03:50:17;5.20;;;1.70;;
47483;SDS011;54076;50.322;18.650;2024-01-27T03:55:18;8.60;;;1.60;;
47483;SDS011;54076;50.322;18.650;2024-01-27T04:00:19;7.80;;;2.00;;
47483;SDS011;54076;50.322;18.650;2024-01-27T04:05:20;8.70;;;1.60;;
47483;SDS011;54076;50.322;18.650;2024-01-27T04:10:22;8.10;;;2.40;;
47483;SDS011;54076;50.322;18.650;2024-01-27T04:15:23;5.80;;;2.20;;
47483;SDS011;54076;50.322;18.650;2024-01-27T04:20:25;6.50;;;2.10;;
47483;SDS011;54076;50.322;18.650;2024-01-27T04:25:26;6.70;;;1.90;;
47483;SDS011;54076;50.322;18.650;2024-01-27T04:30:27;5.40;;;1.70;;
47483;SDS011;54076;50.322;18.650;2024-01-27T04:35:28;9.30;;;2.50;;
47483;SDS011;54076;50.322;18.650;2024-01-27T04:40:29;7.90;;;2.00;;
47483;SDS011;54076;50.322;18.650;2024-01-27T04:45:30;8.40;;;1.90;;
47483;SDS011;54076;50.322;18.650;2024-01-27T04:50:31;7.70;;;2.00;;
47483;SDS011;54076;50.322;18.650;2024-01-27T04:55:32;8.80;;;2.30;;
47483;SDS011;54076;50.322;18.650;2024-01-27T05:00:33;5.80;;;1.90;;
47483;SDS011;54076;50.322;18.650;2024-01-27T05:05:34;8.60;;;2.00;;
47483;SDS011;54076;50.322;18.650;2024-01-27T05:10:35;7.70;;;2.80;;
47483;SDS011;54076;50.322;18.650;2024-01-27T05:15:37;9.60;;;1.80;;
47483;SDS011;54076;50.322;18.650;2024-01-27T05:20:38;7.50;;;2.10;;
47483;SDS011;54076;50.322;18.650;2024-01-27T05:25:39;5.90;;;2.00;;
47483;SDS011;54076;50.322;18.650;2024-01-27T05:30:40;9.30;;;2.30;;
47483;SDS011;54076;50.322;18.650;2024-01-27T05:35:41;7.80;;;1.90;;
47483;SDS011;54076;50.322;18.650;2024-01-27T05:40:42;7.20;;;2.50;;
47483;SDS011;54076;50.322;18.650;2024-01-27T05:45:43;6.70;;;1.80;;
47483;SDS011;54076;50.322;18.650;2024-01-27T05:50:55;6.50;;;2.00;;
47483;SDS011;54076;50.322;18.650;2024-01-27T05:55:59;7.50;;;2.20;;
47483;SDS011;54076;50.322;18.650;2024-01-27T06:01:00;5.30;;;2.10;;
47483;SDS011;54076;50.322;18.650;2024-01-27T06:06:01;5.70;;;2.00;;
47483;SDS011;54076;50.322;18.650;2024-01-27T06:11:02;7.70;;;2.40;;
47483;SDS011;54076;50.322;18.650;2024-01-27T06:16:07;6.10;;;1.90;;
47483;SDS011;54076;50.322;18.650;2024-01-27T06:21:12;5.80;;;2.20;;
47483;SDS011;54076;50.322;18.650;2024-01-27T06:26:14;7.90;;;2.40;;
47483;SDS011;54076;50.322;18.650;2024-01-27T06:31:15;9.90;;;2.50;;
47483;SDS011;54076;50.322;18.650;2024-01-27T06:36:16;10.90;;;1.90;;
47483;SDS011;54076;50.322;18.650;2024-01-27T06:41:17;7.20;;;2.20;;
47483;SDS011;54076;50.322;18.650;2024-01-27T06:46:19;7.70;;;2.40;;
47483;SDS011;54076;50.322;18.650;2024-01-27T06:51:20;9.70;;;2.20;;
47483;SDS011;54076;50.322;18.650;2024-01-27T06:56:20;7.00;;;2.10;;
47483;SDS011;54076;50.322;18.650;2024-01-27T07:01:21;5.50;;;1.90;;
47483;SDS011;54076;50.322;18.650;2024-01-27T07:06:22;9.60;;;2.50;;
47483;SDS011;54076;50.322;18.650;2024-01-27T07:11:23;9.10;;;2.30;;
47483;SDS011;54076;50.322;18.650;2024-01-27T07:16:24;11.10;;;2.40;;
47483;SDS011;54076;50.322;18.650;2024-01-27T07:21:25;8.10;;;2.30;;
47483;SDS011;54076;50.322;18.650;2024-01-27T07:26:27;7.70;;;1.90;;
47483;SDS011;54076;50.322;18.650;2024-01-27T07:31:28;8.10;;;2.40;;
47483;SDS011;54076;50.322;18.650;2024-01-27T07:36:29;7.40;;;1.90;;
47483;SDS011;54076;50.322;18.650;2024-01-27T07:41:33;7.20;;;2.10;;
47483;SDS011;54076;50.322;18.650;2024-01-27T07:46:34;6.90;;;2.00;;
47483;SDS011;54076;50.322;18.650;2024-01-27T07:51:35;7.80;;;2.20;;
47483;SDS011;54076;50.322;18.650;2024-01-27T07:56:37;7.70;;;2.20;;
47483;SDS011;54076;50.322;18.650;2024-01-27T08:01:39;10.60;;;2.50;;
47483;SDS011;54076;50.322;18.650;2024-01-27T08:06:48;6.10;;;2.00;;
47483;SDS011;54076;50.322;18.650;2024-01-27T08:11:51;9.70;;;2.20;;
47483;SDS011;54076;50.322;18.650;2024-01-27T08:16:53;6.90;;;2.50;;
47483;SDS011;54076;50.322;18.650;2024-01-27T08:21:54;6.60;;;2.70;;
47483;SDS011;54076;50.322;18.650;2024-01-27T08:26:55;11.80;;;2.30;;
47483;SDS011;54076;50.322;18.650;2024-01-27T08:31:55;9.60;;;2.30;;
47483;SDS011;54076;50.322;18.650;2024-01-27T08:37:01;7.60;;;2.00;;
47483;SDS011;54076;50.322;18.650;2024-01-27T08:42:03;7.60;;;2.20;;
47483;SDS011;54076;50.322;18.650;2024-01-27T08:47:05;11.20;;;2.40;;
47483;SDS011;54076;50.322;18.650;2024-01-27T08:52:06;9.80;;;2.00;;
47483;SDS011;54076;50.322;18.650;2024-01-27T08:57:07;6.60;;;1.90;;
47483;SDS011;54076;50.322;18.650;2024-01-27T09:02:08;7.60;;;2.40;;
47483;SDS011;54076;50.322;18.650;2024-01-27T09:07:09;5.10;;;1.80;;
47483;SDS011;54076;50.322;18.650;2024-01-27T09:12:10;7.60;;;2.80;;
47483;SDS011;54076;50.322;18.650;2024-01-27T09:17:11;9.10;;;2.40;;
47483;SDS011;54076;50.322;18.650;2024-01-27T09:22:13;7.60;;;1.90;;
47483;SDS011;54076;50.322;18.650;2024-01-27T09:27:14;9.40;;;2.10;;
47483;SDS011;54076;50.322;18.650;2024-01-27T09:32:15;9.50;;;2.50;;
47483;SDS011;54076;50.322;18.650;2024-01-27T09:37:16;5.70;;;2.20;;
47483;SDS011;54076;50.322;18.650;2024-01-27T09:42:17;10.30;;;2.80;;
47483;SDS011;54076;50.322;18.650;2024-01-27T09:47:21;8.10;;;2.40;;
47483;SDS011;54076;50.322;18.650;2024-01-27T09:52:22;8.10;;;2.40;;
47483;SDS011;54076;50.322;18.650;2024-01-27T09:57:24;9.80;;;2.30;;
47483;SDS011;54076;50.322;18.650;2024-01-27T10:02:26;8.90;;;3.00;;
47483;SDS011;54076;50.322;18.650;2024-01-27T10:07:27;7.20;;;2.20;;
47483;SDS011;54076;50.322;18.650;2024-01-27T10:12:28;10.80;;;2.30;;
47483;SDS011;54076;50.322;18.650;2024-01-27T10:17:29;8.20;;;2.20;;
47483;SDS011;54076;50.322;18.650;2024-01-27T10:22:39;10.40;;;3.10;;
47483;SDS011;54076;50.322;18.650;2024-01-27T10:27:40;7.90;;;2.80;;
47483;SDS011;54076;50.322;18.650;2024-01-27T10:32:42;8.10;;;2.60;;
47483;SDS011;54076;50.322;18.650;2024-01-27T10:37:43;7.20;;;1.90;;
47483;SDS011;54076;50.322;18.650;2024-01-27T10:42:44;6.90;;;2.30;;
47483;SDS011;54076;50.322;18.650;2024-01-27T10:47:46;8.20;;;2.10;;
47483;SDS011;54076;50.322;18.650;2024-01-27T10:52:50;10.50;;;3.20;;
47483;SDS011;54076;50.322;18.650;2024-01-27T10:57:54;8.60;;;2.20;;
47483;SDS011;54076;50.322;18.650;2024-01-27T11:03:01;7.90;;;2.40;;
47483;SDS011;54076;50.322;18.650;2024-01-27T11:08:05;13.60;;;3.30;;
47483;SDS011;54076;50.322;18.650;2024-01-27T11:13:06;11.10;;;2.60;;
47483;SDS011;54076;50.322;18.650;2024-01-27T11:18:09;8.00;;;2.40;;
47483;SDS011;54076;50.322;18.650;2024-01-27T11:23:11;6.40;;;2.40;;
47483;SDS011;54076;50.322;18.650;2024-01-27T11:28:15;7.70;;;2.30;;
47483;SDS011;54076;50.322;18.650;2024-01-27T11:33:17;7.90;;;2.50;;
47483;SDS011;54076;50.322;18.650;2024-01-27T11:38:18;10.30;;;3.00;;
47483;SDS011;54076;50.322;18.650;2024-01-27T11:43:19;6.90;;;2.40;;
47483;SDS011;54076;50.322;18.650;2024-01-27T11:48:20;9.80;;;2.60;;
47483;SDS011;54076;50.322;18.650;2024-01-27T11:53:21;10.30;;;2.30;;
47483;SDS011;54076;50.322;18.650;2024-01-27T11:58:23;8.20;;;2.30;;
47483;SDS011;54076;50.322;18.650;2024-01-27T12:03:25;12.70;;;2.80;;
47483;SDS011;54076;50.322;18.650;2024-01-27T12:08:26;8.90;;;3.00;;
47483;SDS011;54076;50.322;18.650;2024-01-27T12:13:28;8.90;;;2.50;;
47483;SDS011;54076;50.322;18.650;2024-01-27T12:18:29;9.90;;;2.50;;
47483;SDS011;54076;50.322;18.650;2024-01-27T12:23:30;10.30;;;2.50;;
47483;SDS011;54076;50.322;18.650;2024-01-27T12:28:31;9.80;;;2.30;;
47483;SDS011;54076;50.322;18.650;2024-01-27T12:33:33;9.40;;;2.30;;
47483;SDS011;54076;50.322;18.650;2024-01-27T12:38:34;7.50;;;2.70;;
47483;SDS011;54076;50.322;18.650;2024-01-27T12:43:35;13.20;;;2.90;;
47483;SDS011;54076;50.322;18.650;2024-01-27T12:48:36;13.20;;;3.40;;
47483;SDS011;54076;50.322;18.650;2024-01-27T12:53:41;7.90;;;2.50;;
47483;SDS011;54076;50.322;18.650;2024-01-27T12:58:44;7.70;;;2.60;;
47483;SDS011;54076;50.322;18.650;2024-01-27T13:03:45;9.60;;;3.90;;
47483;SDS011;54076;50.322;18.650;2024-01-27T13:08:46;9.40;;;3.30;;
47483;SDS011;54076;50.322;18.650;2024-01-27T13:13:47;13.00;;;3.40;;
47483;SDS011;54076;50.322;18.650;2024-01-27T13:18:48;17.60;;;3.40;;
47483;SDS011;54076;50.322;18.650;2024-01-27T13:23:49;10.60;;;3.20;;
47483;SDS011;54076;50.322;18.650;2024-01-27T13:28:53;10.20;;;2.80;;
47483;SDS011;54076;50.322;18.650;2024-01-27T13:33:54;14.00;;;2.50;;
47483;SDS011;54076;50.322;18.650;2024-01-27T13:38:55;9.30;;;2.70;;
47483;SDS011;54076;50.322;18.650;2024-01-27T13:43:56;13.00;;;2.70;;
47483;SDS011;54076;50.322;18.650;2024-01-27T13:48:57;11.50;;;3.20;;
47483;SDS011;54076;50.322;18.650;2024-01-27T13:53:58;11.10;;;2.90;;
47483;SDS011;54076;50.322;18.650;2024-01-27T13:58:59;9.00;;;2.60;;
47483;SDS011;54076;50.322;18.650;2024-01-27T14:04:00;19.10;;;6.80;;
47483;SDS011;54076;50.322;18.650;2024-01-27T14:09:01;7.90;;;2.60;;
47483;SDS011;54076;50.322;18.650;2024-01-27T14:14:02;13.70;;;2.80;;
47483;SDS011;54076;50.322;18.650;2024-01-27T14:19:03;9.80;;;2.70;;
47483;SDS011;54076;50.322;18.650;2024-01-27T14:24:06;8.90;;;2.80;;
47483;SDS011;54076;50.322;18.650;2024-01-27T14:29:08;9.20;;;3.00;;
47483;SDS011;54076;50.322;18.650;2024-01-27T14:34:09;12.00;;;3.10;;
47483;SDS011;54076;50.322;18.650;2024-01-27T14:39:10;11.10;;;2.90;;
47483;SDS011;54076;50.322;18.650;2024-01-27T14:44:11;10.40;;;3.00;;
47483;SDS011;54076;50.322;18.650;2024-01-27T14:49:12;6.20;;;2.10;;
47483;SDS011;54076;50.322;18.650;2024-01-27T14:54:13;10.50;;;2.50;;
47483;SDS011;54076;50.322;18.650;2024-01-27T14:59:14;9.70;;;2.30;;
47483;SDS011;54076;50.322;18.650;2024-01-27T15:04:15;9.30;;;2.90;;
47483;SDS011;54076;50.322;18.650;2024-01-27T15:09:16;13.10;;;3.70;;
47483;SDS011;54076;50.322;18.650;2024-01-27T15:14:17;8.30;;;3.30;;
47483;SDS011;54076;50.322;18.650;2024-01-27T15:19:19;15.60;;;3.70;;
47483;SDS011;54076;50.322;18.650;2024-01-27T15:24:20;13.80;;;4.10;;
47483;SDS011;54076;50.322;18.650;2024-01-27T15:29:21;12.50;;;4.10;;
47483;SDS011;54076;50.322;18.650;2024-01-27T15:34:21;12.60;;;3.90;;
47483;SDS011;54076;50.322;18.650;2024-01-27T15:39:23;10.00;;;3.30;;
47483;SDS011;54076;50.322;18.650;2024-01-27T15:44:24;10.90;;;3.80;;
47483;SDS011;54076;50.322;18.650;2024-01-27T15:49:25;10.40;;;3.30;;
47483;SDS011;54076;50.322;18.650;2024-01-27T15:54:26;16.80;;;5.40;;
47483;SDS011;54076;50.322;18.650;2024-01-27T15:59:27;13.50;;;4.00;;
47483;SDS011;54076;50.322;18.650;2024-01-27T16:04:28;14.10;;;3.90;;
47483;SDS011;54076;50.322;18.650;2024-01-27T16:09:29;14.20;;;4.30;;
47483;SDS011;54076;50.322;18.650;2024-01-27T16:14:30;17.00;;;4.10;;
47483;SDS011;54076;50.322;18.650;2024-01-27T16:19:31;13.40;;;3.70;;
47483;SDS011;54076;50.322;18.650;2024-01-27T16:24:32;17.20;;;4.70;;
47483;SDS011;54076;50.322;18.650;2024-01-27T16:29:33;11.10;;;3.40;;
47483;SDS011;54076;50.322;18.650;2024-01-27T16:34:34;10.40;;;3.40;;
47483;SDS011;54076;50.322;18.650;2024-01-27T16:39:35;9.30;;;3.60;;
47483;SDS011;54076;50.322;18.650;2024-01-27T16:44:37;12.70;;;3.40;;
47483;SDS011;54076;50.322;18.650;2024-01-27T16:49:38;12.10;;;4.20;;
47483;SDS011;54076;50.322;18.650;2024-01-27T16:54:39;16.50;;;4.40;;
47483;SDS011;54076;50.322;18.650;2024-01-27T16:59:41;14.60;;;4.20;;
47483;SDS011;54076;50.322;18.650;2024-01-27T17:04:42;11.40;;;3.20;;
47483;SDS011;54076;50.322;18.650;2024-01-27T17:09:43;15.20;;;3.10;;
47483;SDS011;54076;50.322;18.650;2024-01-27T17:14:44;10.80;;;3.50;;
47483;SDS011;54076;50.322;18.650;2024-01-27T17:19:45;13.80;;;3.50;;
47483;SDS011;54076;50.322;18.650;2024-01-27T17:24:46;28.80;;;9.90;;
47483;SDS011;54076;50.322;18.650;2024-01-27T17:29:47;11.20;;;3.60;;
47483;SDS011;54076;50.322;18.650;2024-01-27T17:34:48;11.30;;;3.90;;
47483;SDS011;54076;50.322;18.650;2024-01-27T17:39:49;14.70;;;3.60;;
47483;SDS011;54076;50.322;18.650;2024-01-27T17:44:50;13.40;;;3.50;;
47483;SDS011;54076;50.322;18.650;2024-01-27T17:49:51;9.90;;;3.30;;
47483;SDS011;54076;50.322;18.650;2024-01-27T17:54:52;14.40;;;4.40;;
47483;SDS011;54076;50.322;18.650;2024-01-27T17:59:53;10.80;;;3.60;;
47483;SDS011;54076;50.322;18.650;2024-01-27T18:04:54;11.90;;;3.60;;
47483;SDS011;54076;50.322;18.650;2024-01-27T18:09:55;14.10;;;3.80;;
47483;SDS011;54076;50.322;18.650;2024-01-27T18:14:56;15.40;;;3.80;;
47483;SDS011;54076;50.322;18.650;2024-01-27T18:19:57;14.80;;;3.60;;
47483;SDS011;54076;50.322;18.650;2024-01-27T18:24:58;14.00;;;4.40;;
47483;SDS011;54076;50.322;18.650;2024-01-27T18:29:59;11.80;;;3.70;;
47483;SDS011;54076;50.322;18.650;2024-01-27T18:35:00;15.30;;;4.20;;
47483;SDS011;54076;50.322;18.650;2024-01-27T18:40:01;14.00;;;4.00;;
47483;SDS011;54076;50.322;18.650;2024-01-27T18:45:05;12.30;;;4.30;;
47483;SDS011;54076;50.322;18.650;2024-01-27T18:50:07;12.90;;;4.10;;
47483;SDS011;54076;50.322;18.650;2024-01-27T18:55:10;12.60;;;4.20;;
47483;SDS011;54076;50.322;18.650;2024-01-27T19:00:13;22.40;;;5.60;;
47483;SDS011;54076;50.322;18.650;2024-01-27T19:05:14;16.70;;;6.30;;
47483;SDS011;54076;50.322;18.650;2024-01-27T19:10:17;14.20;;;4.00;;
47483;SDS011;54076;50.322;18.650;2024-01-27T19:15:18;12.90;;;4.30;;
47483;SDS011;54076;50.322;18.650;2024-01-27T19:20:19;12.10;;;4.20;;
47483;SDS011;54076;50.322;18.650;2024-01-27T19:25:20;11.40;;;4.00;;
47483;SDS011;54076;50.322;18.650;2024-01-27T19:30:21;11.30;;;3.50;;
47483;SDS011;54076;50.322;18.650;2024-01-27T19:35:22;11.70;;;4.10;;
47483;SDS011;54076;50.322;18.650;2024-01-27T19:40:24;13.80;;;3.80;;
47483;SDS011;54076;50.322;18.650;2024-01-27T19:45:25;14.30;;;3.80;;
47483;SDS011;54076;50.322;18.650;2024-01-27T19:50:26;13.90;;;3.70;;
47483;SDS011;54076;50.322;18.650;2024-01-27T19:55:27;14.20;;;4.20;;
47483;SDS011;54076;50.322;18.650;2024-01-27T20:00:27;13.60;;;4.20;;
47483;SDS011;54076;50.322;18.650;2024-01-27T20:05:30;18.60;;;5.00;;
47483;SDS011;54076;50.322;18.650;2024-01-27T20:10:31;18.50;;;5.10;;
47483;SDS011;54076;50.322;18.650;2024-01-27T20:15:33;21.50;;;6.00;;
47483;SDS011;54076;50.322;18.650;2024-01-27T20:20:34;26.50;;;7.60;;
47483;SDS011;54076;50.322;18.650;2024-01-27T20:25:36;17.40;;;5.20;;
47483;SDS011;54076;50.322;18.650;2024-01-27T20:30:37;14.40;;;5.00;;
47483;SDS011;54076;50.322;18.650;2024-01-27T20:35:38;19.20;;;5.10;;
47483;SDS011;54076;50.322;18.650;2024-01-27T20:40:39;17.40;;;4.70;;
47483;SDS011;54076;50.322;18.650;2024-01-27T20:45:41;15.20;;;4.70;;
47483;SDS011;54076;50.322;18.650;2024-01-27T20:50:41;18.90;;;4.10;;
47483;SDS011;54076;50.322;18.650;2024-01-27T20:55:42;17.00;;;4.60;;
47483;SDS011;54076;50.322;18.650;2024-01-27T21:00:46;15.50;;;4.90;;
47483;SDS011;54076;50.322;18.650;2024-01-27T21:05:47;12.00;;;4.50;;
47483;SDS011;54076;50.322;18.650;2024-01-27T21:10:48;17.30;;;4.40;;
47483;SDS011;54076;50.322;18.650;2024-01-27T21:15:49;17.50;;;5.30;;
47483;SDS011;54076;50.322;18.650;2024-01-27T21:20:50;17.30;;;4.60;;
47483;SDS011;54076;50.322;18.650;2024-01-27T21:25:52;19.90;;;5.60;;
47483;SDS011;54076;50.322;18.650;2024-01-27T21:30:53;17.50;;;5.40;;
47483;SDS011;54076;50.322;18.650;2024-01-27T21:35:54;18.40;;;5.30;;
47483;SDS011;54076;50.322;18.650;2024-01-27T21:40:55;17.70;;;5.20;;
47483;SDS011;54076;50.322;18.650;2024-01-27T21:45:56;19.10;;;6.60;;
47483;SDS011;54076;50.322;18.650;2024-01-27T21:50:57;18.60;;;4.90;;
47483;SDS011;54076;50.322;18.650;2024-01-27T21:55:58;13.90;;;4.90;;
47483;SDS011;54076;50.322;18.650;2024-01-27T22:00:59;14.40;;;4.40;;
47483;SDS011;54076;50.322;18.650;2024-01-27T22:06:00;19.20;;;5.20;;
47483;SDS011;54076;50.322;18.650;2024-01-27T22:11:05;16.00;;;5.10;;
47483;SDS011;54076;50.322;18.650;2024-01-27T22:16:06;16.80;;;5.10;;
47483;SDS011;54076;50.322;18.650;2024-01-27T22:21:07;15.40;;;5.40;;
47483;SDS011;54076;50.322;18.650;2024-01-27T22:26:08;16.80;;;5.00;;
47483;SDS011;54076;50.322;18.650;2024-01-27T22:31:09;17.80;;;5.70;;
47483;SDS011;54076;50.322;18.650;2024-01-27T22:36:10;19.40;;;5.50;;
47483;SDS011;54076;50.322;18.650;2024-01-27T22:41:13;16.70;;;5.00;;
47483;SDS011;54076;50.322;18.650;2024-01-27T22:46:14;16.20;;;5.50;;
47483;SDS011;54076;50.322;18.650;2024-01-27T22:51:15;14.90;;;4.50;;
47483;SDS011;54076;50.322;18.650;2024-01-27T22:56:17;15.10;;;4.80;;
47483;SDS011;54076;50.322;18.650;2024-01-27T23:01:18;17.20;;;5.20;;
47483;SDS011;54076;50.322;18.650;2024-01-27T23:06:22;15.40;;;5.20;;
47483;SDS011;54076;50.322;18.650;2024-01-27T23:11:23;14.80;;;4.10;;
47483;SDS011;54076;50.322;18.650;2024-01-27T23:16:24;14.50;;;4.60;;
47483;SDS011;54076;50.322;18.650;2024-01-27T23:21:25;16.40;;;4.30;;
47483;SDS011;54076;50.322;18.650;2024-01-27T23:26:26;10.10;;;3.60;;
47483;SDS011;54076;50.322;18.650;2024-01-27T23:31:27;12.80;;;4.10;;
47483;SDS011;54076;50.322;18.650;2024-01-27T23:36:28;12.40;;;4.30;;
47483;SDS011;54076;50.322;18.650;2024-01-27T23:41:29;12.40;;;3.40;;
47483;SDS011;54076;50.322;18.650;2024-01-27T23:46:30;13.90;;;4.00;;
47483;SDS011;54076;50.322;18.650;2024-01-27T23:51:31;14.40;;;4.40;;
47483;SDS011;54076;50.322;18.650;2024-01-27T23:56:35;14.70;;;4.40;;
